Mary Alice — WCX9570 — position and weather

sailwx.info

Track history (hours):
 
Tides and Currents Weather Stations Pressure Air Temp Water Temp Dewpoint Dewpoint Depression Visibility Wind Speed Wind Dir Waves Ship Positions

Mary Alice

Owner: Donjon Marine Co., Inc., HILLSIDE, NJ. More information available from US FCC via Universal Licensing System and Coast Guard Vessel Documentation Center.

Last reported at 2016-May-29 12:27 UTC. Time now 2016-May-29 13:32 UTC.
Position N 40°28' W 074°03'.

Length 21 m; draft 4.8 m.

Type: Towing. MMSI: 366744020.

Date/timePositionNaut miles runAvg speedWind from/ knotsBaromVisibWave heightAir tempDewpointWater temp
2016-May-29 12:27N 40°28' W 074°03'3 3.0
2016-May-29 11:33N 40°29' W 073°60'6 5.8
2016-May-29 10:33N 40°25' W 073°54'6 6.1
2016-May-29 09:33N 40°20' W 073°50'12 5.9
2016-May-29 07:32N 40°29' W 074°00'3 2.8
2016-May-29 06:32N 40°29' W 074°04'13 4.2
2016-May-29 03:33N 40°22' W 073°50'10 3.3
2016-May-29 00:21N 40°29' W 073°60'4 4.6
2016-May-28 23:33N 40°29' W 074°05'2 0.2
2016-May-28 16:21N 40°28' W 074°03'0 0.4
2016-May-28 15:10N 40°28' W 074°03'0 0.4
2016-May-28 14:20N 40°28' W 074°03'0 0.1
2016-May-28 09:31N 40°29' W 074°02'2 0.4
2016-May-28 04:33N 40°29' W 073°60'2 1.8
2016-May-28 03:29N 40°28' W 074°02'3 3.1
2016-May-28 02:31N 40°29' W 074°06'5 0.4
2016-May-27 12:30N 40°29' W 073°59'0 0.1
2016-May-27 05:33N 40°29' W 073°60'2 2.3
2016-May-27 04:33N 40°29' W 074°03'7 2.2
2016-May-27 01:33N 40°26' W 073°55'7 7.1
2016-May-27 00:33N 40°20' W 073°50'6 6.0
2016-May-26 23:32N 40°25' W 073°54'6 6.0
2016-May-26 22:33N 40°29' W 073°60'0 0.0
2016-May-26 21:13N 40°29' W 073°60'2 3.4
2016-May-26 20:32N 40°28' W 074°03'0 0.2
2016-May-26 19:21N 40°28' W 074°03'1 0.5
2016-May-26 17:24N 40°28' W 074°02'3 0.4
2016-May-26 10:24N 40°29' W 073°59'1 0.5
2016-May-26 09:25N 40°29' W 073°60'4 1.7
2016-May-26 07:09N 40°27' W 073°56'4 1.2
2016-May-26 03:29N 40°29' W 074°00'4 2.0
2016-May-26 01:32N 40°29' W 074°05'3 0.2
2016-May-25 13:06N 40°29' W 074°01'1 2.5
2016-May-25 12:33N 40°29' W 073°60'0 0.0
2016-May-25 11:33N 40°29' W 073°60'0 0.0
2016-May-25 01:33N 40°29' W 073°60'0 0.1
2016-May-25 00:05N 40°29' W 073°60'0 0.1
2016-May-24 23:23N 40°29' W 073°60'1 1.0
2016-May-24 22:33N 40°29' W 074°01'0 0.0
2016-May-24 15:27N 40°29' W 074°01'0 0.0
2016-May-24 13:10N 40°29' W 074°01'2 0.1
2016-May-24 00:31N 40°28' W 074°03'3 0.6
2016-May-23 19:19N 40°29' W 073°59'12 0.5
2016-May-22 20:20N 40°39' W 074°07'0 0.0
2016-May-22 19:33N 40°39' W 074°07'0 0.0
2016-May-22 18:33N 40°39' W 074°07'0 0.1
2016-May-22 17:33N 40°39' W 074°07'0 0.0
2016-May-22 16:33N 40°39' W 074°07'0 0.0
2016-May-22 15:33N 40°39' W 074°07'0 0.0
2016-May-22 14:33N 40°39' W 074°07'2 1.6
2016-May-22 13:33N 40°39' W 074°09'2 1.2
2016-May-22 11:33N 40°42' W 074°09'14 1.4
2016-May-22 01:26N 40°28' W 074°03'0 0.1
2016-May-22 00:17N 40°28' W 074°03'2 2.4
2016-May-21 23:31N 40°29' W 074°05'2 0.5
2016-May-21 20:29N 40°28' W 074°03'2 2.2
2016-May-21 19:33N 40°29' W 074°06'2 2.4
2016-May-21 18:32N 40°28' W 074°03'3 2.7
2016-May-21 17:33N 40°29' W 074°06'14 4.7
2016-May-21 14:33N 40°23' W 073°49'11 3.6
2016-May-21 11:32N 40°29' W 074°01'4 2.8
2016-May-21 10:12N 40°29' W 074°05'7 4.4
2016-May-21 08:32N 40°27' W 073°56'3 1.0
2016-May-21 05:14N 40°29' W 073°59'0 0.3
2016-May-21 04:15N 40°29' W 073°60'0 0.1
2016-May-21 02:23N 40°29' W 073°59'7 7.5
2016-May-21 01:25N 40°24' W 073°53'7 2.2
2016-May-20 22:10N 40°29' W 073°59'0 0.2
2016-May-20 21:12N 40°29' W 073°60'0 0.0
2016-May-20 14:18N 40°29' W 073°59'2 1.0
2016-May-20 12:23N 40°29' W 074°02'2 0.3
2016-May-20 06:06N 40°29' W 073°59'3 2.0
2016-May-20 04:28N 40°28' W 074°03'9 3.2
2016-May-20 01:33N 40°24' W 073°52'8 1.9
2016-May-19 21:29N 40°29' W 073°60'2 0.6
2016-May-19 18:32N 40°27' W 074°01'1 0.9
2016-May-19 17:12N 40°28' W 074°02'1 1.7
2016-May-19 16:33N 40°28' W 074°03'  
Track history (hours):
 
Tides and Currents Weather Stations Pressure Air Temp Water Temp Dewpoint Dewpoint Depression Visibility Wind Speed Wind Dir Waves Ship Positions

Mary Alice

Owner: Donjon Marine Co., Inc., HILLSIDE, NJ. More information available from US FCC via Universal Licensing System and Coast Guard Vessel Documentation Center.

Last reported at 2016-May-29 12:27 UTC. Time now 2016-May-29 13:32 UTC.
Position N 40°28' W 074°03'.

Length 21 m; draft 4.8 m.

Type: Towing. MMSI: 366744020.

Date/timePositionNaut miles runAvg speedWind from/ knotsBaromVisibWave heightAir tempDewpointWater temp
2016-May-29 12:27N 40°28' W 074°03'3 3.0
2016-May-29 11:33N 40°29' W 073°60'6 5.8
2016-May-29 10:33N 40°25' W 073°54'6 6.1
2016-May-29 09:33N 40°20' W 073°50'12 5.9
2016-May-29 07:32N 40°29' W 074°00'3 2.8
2016-May-29 06:32N 40°29' W 074°04'13 4.2
2016-May-29 03:33N 40°22' W 073°50'10 3.3
2016-May-29 00:21N 40°29' W 073°60'4 4.6
2016-May-28 23:33N 40°29' W 074°05'2 0.2
2016-May-28 16:21N 40°28' W 074°03'0 0.4
2016-May-28 15:10N 40°28' W 074°03'0 0.4
2016-May-28 14:20N 40°28' W 074°03'0 0.1
2016-May-28 09:31N 40°29' W 074°02'2 0.4
2016-May-28 04:33N 40°29' W 073°60'2 1.8
2016-May-28 03:29N 40°28' W 074°02'3 3.1
2016-May-28 02:31N 40°29' W 074°06'5 0.4
2016-May-27 12:30N 40°29' W 073°59'0 0.1
2016-May-27 05:33N 40°29' W 073°60'2 2.3
2016-May-27 04:33N 40°29' W 074°03'7 2.2
2016-May-27 01:33N 40°26' W 073°55'7 7.1
2016-May-27 00:33N 40°20' W 073°50'6 6.0
2016-May-26 23:32N 40°25' W 073°54'6 6.0
2016-May-26 22:33N 40°29' W 073°60'0 0.0
2016-May-26 21:13N 40°29' W 073°60'2 3.4
2016-May-26 20:32N 40°28' W 074°03'0 0.2
2016-May-26 19:21N 40°28' W 074°03'1 0.5
2016-May-26 17:24N 40°28' W 074°02'3 0.4
2016-May-26 10:24N 40°29' W 073°59'1 0.5
2016-May-26 09:25N 40°29' W 073°60'4 1.7
2016-May-26 07:09N 40°27' W 073°56'4 1.2
2016-May-26 03:29N 40°29' W 074°00'4 2.0
2016-May-26 01:32N 40°29' W 074°05'3 0.2
2016-May-25 13:06N 40°29' W 074°01'1 2.5
2016-May-25 12:33N 40°29' W 073°60'0 0.0
2016-May-25 11:33N 40°29' W 073°60'0 0.0
2016-May-25 01:33N 40°29' W 073°60'0 0.1
2016-May-25 00:05N 40°29' W 073°60'0 0.1
2016-May-24 23:23N 40°29' W 073°60'1 1.0
2016-May-24 22:33N 40°29' W 074°01'0 0.0
2016-May-24 15:27N 40°29' W 074°01'0 0.0
2016-May-24 13:10N 40°29' W 074°01'2 0.1
2016-May-24 00:31N 40°28' W 074°03'3 0.6
2016-May-23 19:19N 40°29' W 073°59'12 0.5
2016-May-22 20:20N 40°39' W 074°07'0 0.0
2016-May-22 19:33N 40°39' W 074°07'0 0.0
2016-May-22 18:33N 40°39' W 074°07'0 0.1
2016-May-22 17:33N 40°39' W 074°07'0 0.0
2016-May-22 16:33N 40°39' W 074°07'0 0.0
2016-May-22 15:33N 40°39' W 074°07'0 0.0
2016-May-22 14:33N 40°39' W 074°07'2 1.6
2016-May-22 13:33N 40°39' W 074°09'2 1.2
2016-May-22 11:33N 40°42' W 074°09'14 1.4
2016-May-22 01:26N 40°28' W 074°03'0 0.1
2016-May-22 00:17N 40°28' W 074°03'2 2.4
2016-May-21 23:31N 40°29' W 074°05'2 0.5
2016-May-21 20:29N 40°28' W 074°03'2 2.2
2016-May-21 19:33N 40°29' W 074°06'2 2.4
2016-May-21 18:32N 40°28' W 074°03'3 2.7
2016-May-21 17:33N 40°29' W 074°06'14 4.7
2016-May-21 14:33N 40°23' W 073°49'11 3.6
2016-May-21 11:32N 40°29' W 074°01'4 2.8
2016-May-21 10:12N 40°29' W 074°05'7 4.4
2016-May-21 08:32N 40°27' W 073°56'3 1.0
2016-May-21 05:14N 40°29' W 073°59'0 0.3
2016-May-21 04:15N 40°29' W 073°60'0 0.1
2016-May-21 02:23N 40°29' W 073°59'7 7.5
2016-May-21 01:25N 40°24' W 073°53'7 2.2
2016-May-20 22:10N 40°29' W 073°59'0 0.2
2016-May-20 21:12N 40°29' W 073°60'0 0.0
2016-May-20 14:18N 40°29' W 073°59'2 1.0
2016-May-20 12:23N 40°29' W 074°02'2 0.3
2016-May-20 06:06N 40°29' W 073°59'3 2.0
2016-May-20 04:28N 40°28' W 074°03'9 3.2
2016-May-20 01:33N 40°24' W 073°52'8 1.9
2016-May-19 21:29N 40°29' W 073°60'2 0.6
2016-May-19 18:32N 40°27' W 074°01'1 0.9
2016-May-19 17:12N 40°28' W 074°02'1 1.7
2016-May-19 16:33N 40°28' W 074°03'  

Dump ship's entire track history